La Guardia Airport
KLGA : now visible

Airfield :











YOU CAN JOIN US ON...

 
LOGIN :

Register | Disclaimer

   EN    FR    IT 

 









Legend :    VFR   Marginal VFR   IFR   Intensive IFR   Very Intensive IFR
Visi :
Ceiling :
>= 8 km
>= 3000ft
5 to 8 km
1000 to 3000 ft
1500m to 5 km
500 to 1000 ft
800 to 1500m
200 to 500 ft
< 800m
< 200 ft
Symbols :   Thunderstorms  Fog  Heavy snow  Heavy precipitations  Wind > 20 kt






- Airport Elevation : 21 ft
- IATA code : LGA


KLGA - La Guardia

CURRENT METAR :
  • 141951Z 17017G24KT 3/4SM R04/P6000FT BR OVC003 12/11 A2918 RMK AO2 DZE17RAB17E35 PRESFR SLP882 P0001 T01220111

EXPIRED METARs :
  • 141851Z 10004KT 3/4SM -DZ BR OVC003 12/11 A2923 RMK AO2 SFC VIS 1 1/4 PRESFR SLP898 P0000 T01220111
  • 141751Z 06005KT 3/4SM R04/P6000FT -DZ BR OVC003 12/11 A2927 RMK AO2 SFC VIS 1 DZE27B47RAB27E31 SLP912 P0000 60005 T01170106 10117 20094 58054

TAF KLGA
Valid from the 14 at 18:00 until the 16 at 00:00 UTC


141726Z 1418/1524 VRB04KT 1SM -DZ BR OVC005
TEMPO 1418/1420 1/2SM FG BKN003
FM142000 17012KT 3SM -DZ BR OVC005
FM142300 23020G32KT P6SM BKN015 OVC025
FM150500 26021G33KT P6SM BKN035
FM151100 27022G35KT P6SM BKN045
FM152000 28021G33KT P6SM SCT050 SCT250



MET'MAP, your aeronautical weather chart ! - Copyright ORBIFLY December 2007 - Disclaimer

ORBIFLY MET'MAP TEAM :

Programming & Development : Alexandra Zaïnal
Concept & original design : Baudouin d'Aumeries
Assistance for programming : Marc-Olivier Méhu
Technical & hardware support : Manuel Goepfert

Contact : metmap@orbifly.com




SOURCES & CREDITS :

   NOAA       Earth
Advisory